WEATHER DATA

YESTERDAY
Time Temp. Dewp. Hum. Wind dir Wind speed Wind gust Bar. 1h Prec. 24h Prec.
00:05 26.1 18.8 64 232 2.2 4.4 1010.9 0.0000 0.0000
00:16 26.1 18.5 63 228 2.5 3.6 1010.7 0.0000 0.0000
00:26 26.2 18.3 62 228 2.5 3.3 1010.6 0.0000 0.0000
00:36 26.2 18.6 63 226 2.5 3.9 1010.5 0.0000 0.0000
00:46 26.2 19.1 65 224 2.2 3.3 1010.4 0.0000 0.0000
00:56 26.1 19.7 68 226 1.9 4.4 1010.4 0.0000 0.0000
01:06 26 20.1 70 265 2.5 5 1010.3 0.0000 0.0000
01:16 25.9 20 70 245 1.9 5 1010.2 0.0000 0.0000
01:27 25.8 20.4 72 312 3.9 5.3 1010.1 0.0000 0.0000
01:36 25.7 20 71 299 3.1 5.3 1010.2 0.0000 0.0000
01:46 25.5 19.4 69 229 1.9 4.4 1010.1 0.0000 0.0000
01:57 25.4 18.8 67 240 1.9 4.7 1009.9 0.0000 0.0000
02:07 25.4 18.6 66 234 1.9 3.1 1009.7 0.0000 0.0000
02:17 25.3 18.5 66 238 1.9 5 1009.8 0.0000 0.0000
02:26 25.2 18.4 66 236 1.9 4.4 1009.7 0.0000 0.0000
02:37 25.1 18.1 65 231 1.9 4.7 1009.5 0.0000 0.0000
02:47 25.1 18.1 65 220 1.9 2.8 1009.3 0.0000 0.0000
02:57 25.1 18.1 65 229 1.9 2.8 1009.2 0.0000 0.0000
03:07 25.1 18.1 65 236 1.9 4.7 1009 0.0000 0.0000
03:17 25.1 18.1 65 233 1.9 2.5 1009.2 0.0000 0.0000
03:27 25 17.7 64 231 1.9 2.8 1009.1 0.0000 0.0000
03:37 24.8 17.8 65 227 1.9 2.5 1009.1 0.0000 0.0000
03:48 24.7 17.4 64 229 1.9 2.8 1008.9 0.0000 0.0000
03:58 24.6 17.6 65 228 1.7 2.8 1008.8 0.0000 0.0000
04:07 24.5 17.5 65 231 1.9 4.7 1008.8 0.0000 0.0000
04:18 24.3 17.1 64 234 1.9 4.7 1008.8 0.0000 0.0000
04:28 24.1 16.9 64 230 1.9 5.3 1008.8 0.0000 0.0000
04:38 24 16.5 63 233 1.9 4.7 1008.6 0.0000 0.0000
04:48 24 16.5 63 230 1.9 4.4 1008.8 0.0000 0.0000
04:58 24 16.3 62 236 2.2 4.7 1008.8 0.0000 0.0000
05:08 23.8 16.1 62 229 1.9 2.8 1008.7 0.0000 0.0000
05:18 23.8 16.1 62 230 1.7 2.5 1008.6 0.0000 0.0000
05:28 23.7 16 62 232 1.9 4.4 1009 0.0000 0.0000
05:39 23.5 15.8 62 232 1.9 3.6 1009.1 0.0000 0.0000
05:48 23.5 15.8 62 233 1.7 4.4 1009.1 0.0000 0.0000
05:58 23.5 15.8 62 233 1.9 4.7 1009.6 0.0000 0.0000
06:09 23.3 15.9 63 238 1.9 4.7 1009.6 0.0000 0.0000
06:19 23.2 15.8 63 231 1.9 4.4 1009.9 0.0000 0.0000
06:29 23.3 15.9 63 231 1.9 4.4 1009.9 0.0000 0.0000
06:39 23.3 15.9 63 238 1.9 4.4 1009.9 0.0000 0.0000
06:49 23.5 16.3 64 233 1.9 4.4 1010 0.0000 0.0000
06:59 23.7 16.2 63 231 2.2 3.1 1009.8 0.0000 0.0000
07:09 23.9 16.4 63 229 2.5 3.9 1010 0.0000 0.0000
07:20 24.3 16.8 63 237 2.2 4.4 1010.1 0.0000 0.0000
07:29 24.8 17.5 64 299 3.6 5 1010.2 0.0000 0.0000
07:39 25.2 17.9 64 311 3.9 5.8 1010.3 0.0000 0.0000
07:49 25.7 18.1 63 317 4.4 5.8 1010.4 0.0000 0.0000
08:00 26.2 18.9 64 326 4.7 6.7 1010.4 0.0000 0.0000
08:10 26.7 19.6 65 330 4.7 6.1 1010.6 0.0000 0.0000
08:19 27.1 20 65 313 4.7 6.9 1010.6 0.0000 0.0000
08:30 27.6 19.1 60 237 5.6 7.8 1010.6 0.0000 0.0000
08:40 28.2 19.4 59 231 4.2 5.6 1010.7 0.0000 0.0000
08:50 28.9 19.5 57 231 4.7 6.9 1010.7 0.0000 0.0000
09:00 29.6 19.6 55 231 5.3 7.2 1010.6 0.0000 0.0000
09:10 29.8 20.9 59 263 5.6 9.2 1010.7 0.0000 0.0000
09:20 29.5 22.2 65 323 5 6.4 1010.8 0.0000 0.0000
09:30 29.6 20.7 59 245 5.6 7.8 1010.6 0.0000 0.0000
09:41 29.8 20.6 58 251 5.3 7.5 1010.8 0.0000 0.0000
09:51 30.1 21.8 61 326 5.6 7.2 1010.7 0.0000 0.0000
10:00 29.9 23.1 67 337 5.6 6.9 1011 0.0000 0.0000
10:10 29.6 23.1 68 339 5.3 6.9 1010.9 0.0000 0.0000
10:21 29.2 23.2 70 339 5.3 6.9 1011 0.0000 0.0000
10:41 29 23.2 71 341 5.6 6.9 1010.9 0.0000 0.0000
10:51 29.2 23.6 72 340 5.6 6.9 1011.1 0.0000 0.0000
11:01 29.5 23.7 71 341 5.3 7.2 1011.1 0.0000 0.0000
11:11 29.3 23.7 72 342 5.3 7.8 1011.2 0.0000 0.0000
11:21 29.2 24.1 74 343 5.6 7.8 1011.2 0.0000 0.0000
11:32 29.2 24.1 74 343 5.6 6.9 1011.1 0.0000 0.0000
11:41 29.1 24 74 323 4.7 6.1 1011.2 0.0000 0.0000
11:51 29.1 24 74 313 4.4 5.8 1011.2 0.0000 0.0000
12:02 29 24.1 75 314 4.2 6.1 1011 0.0000 0.0000
12:12 29 24.1 75 315 4.4 6.4 1011 0.0000 0.0000
12:16 29.1 24.2 75 334 5.3 6.4 1010.9 0.0000 0.0000
12:26 29.3 24.4 75 330 5.3 7.5 1010.9 0.0000 0.0000
12:37 29.4 24.5 75 330 4.7 6.4 1011 0.0000 0.0000
12:47 29.7 24.6 74 327 5 6.4 1010.9 0.0000 0.0000
12:57 30 24.6 73 324 5 6.4 1010.9 0.0000 0.0000
13:06 30.1 24.5 72 327 5 6.7 1010.7 0.0000 0.0000
13:17 30.2 24.6 72 327 5 6.1 1010.6 0.0000 0.0000
13:27 30.1 24.5 72 328 5.3 6.4 1010.4 0.0000 0.0000
13:37 30.1 24.5 72 326 5 6.7 1010.6 0.0000 0.0000
13:47 30 24.4 72 328 5 6.7 1010.5 0.0000 0.0000
13:57 30.1 24.5 72 327 5 6.1 1010.3 0.0000 0.0000
14:07 30 24.6 73 327 5 6.1 1010.4 0.0000 0.0000
14:17 29.8 24.4 73 326 5 6.4 1010.2 0.0000 0.0000
14:28 29.7 24.6 74 327 5.3 6.7 1010.3 0.0000 0.0000
14:38 29.7 24.6 74 330 5.3 6.7 1010.2 0.0000 0.0000
14:47 29.7 24.6 74 330 5.3 6.9 1010.3 0.0000 0.0000
14:58 29.6 24.5 74 328 5.3 6.1 1010.2 0.0000 0.0000
15:08 29.6 24.5 74 331 5 6.4 1010.2 0.0000 0.0000
15:18 29.5 24.4 74 328 5 5.8 1010.1 0.0000 0.0000
15:28 29.4 24.3 74 327 5 6.1 1010.4 0.0000 0.0000
15:38 29.3 24.4 75 330 5 6.7 1010.2 0.0000 0.0000
15:48 29.1 24.2 75 330 5 6.1 1010.2 0.0000 0.0000
15:58 29.1 24.2 75 328 5 6.4 1010.3 0.0000 0.0000
16:08 29 24.3 76 331 5 6.1 1010.4 0.0000 0.0000
16:19 28.8 24.4 77 331 5.3 6.4 1010.2 0.0000 0.0000
16:28 28.7 24.5 78 333 5 6.4 1010.3 0.0000 0.0000
16:38 28.5 24.3 78 333 5 6.4 1010.2 0.0000 0.0000
16:49 28.5 24.5 79 334 5 6.4 1010.2 0.0000 0.0000
16:59 28.4 24.4 79 337 5.3 6.7 1010.1 0.0000 0.0000
17:09 28.4 24.4 79 337 5.3 6.9 1010 0.0000 0.0000
17:19 28.3 24.3 79 338 5.3 6.1 1009.9 0.0000 0.0000
17:29 28.3 24.3 79 336 5.3 6.7 1009.8 0.0000 0.0000
17:39 28.1 24.1 79 335 5.3 6.7 1009.7 0.0000 0.0000
17:49 28 24.2 80 332 5.3 6.7 1009.8 0.0000 0.0000
17:59 27.9 24.1 80 331 5.3 6.1 1009.6 0.0000 0.0000
18:09 27.9 24.3 81 326 5 6.1 1009.7 0.0000 0.0000
18:19 27.9 24.3 81 330 4.4 6.1 1009.6 0.0000 0.0000
18:29 27.9 24.3 81 333 4.2 5.8 1009.4 0.0000 0.0000
18:40 27.8 24.4 82 334 4.2 5.3 1009.7 0.0000 0.0000
18:49 27.6 24.2 82 340 4.2 5.6 1009.5 0.0000 0.0000
18:59 27.5 24.2 82 335 3.9 5.3 1009.5 0.0000 0.0000
19:10 27.5 24.2 82 336 3.6 5.3 1009.6 0.0000 0.0000
19:20 27.4 24.3 83 343 3.9 5.3 1009.5 0.0000 0.0000
19:30 27.4 24.3 83 336 3.6 5.3 1009.4 0.0000 0.0000
19:40 27.3 24.2 83 336 3.9 5.3 1009.6 0.0000 0.0000
19:50 27.2 24.3 84 332 3.6 5 1009.5 0.0000 0.0000
20:00 27.1 24.2 84 337 3.6 5 1009.3 0.0000 0.0000
20:10 27 24.1 84 319 3.3 5 1009.4 0.0000 0.0000
20:21 26.9 24 84 325 3.6 5 1009.6 0.0000 0.0000
20:31 26.8 24.1 85 317 3.3 5 1009.7 0.0000 0.0000
20:40 26.7 24 85 318 3.1 5 1009.6 0.0000 0.0000
20:50 26.6 23.9 85 317 3.1 5 1009.5 0.0000 0.0000
21:01 26.5 23.8 85 315 3.1 4.7 1009.7 0.0000 0.0000
21:11 26.4 23.7 85 314 3.3 4.7 1009.7 0.0000 0.0000
21:31 26.3 23.8 86 310 2.8 4.4 1009.8 0.0000 0.0000
21:41 26.2 23.7 86 302 2.5 4.7 1009.9 0.0000 0.0000
21:51 26.1 23.6 86 294 2.2 4.7 1009.9 0.0000 0.0000
22:01 26 23.7 87 307 2.5 5 1009.9 0.0000 0.0000
22:12 25.9 23.6 87 299 2.2 5 1009.9 0.0000 0.0000
22:21 25.9 23.6 87 295 1.9 4.7 1010.1 0.0000 0.0000
22:31 25.8 23.7 88 242 1.7 4.4 1010 0.0000 0.0000
22:42 25.8 23.7 88 238 1.4 4.4 1010 0.0000 0.0000
22:52 25.8 23.7 88 263 1.7 4.7 1009.9 0.0000 0.0000
23:02 25.7 23.4 87 255 1.7 4.4 1009.8 0.0000 0.0000
23:11 25.8 23.5 87 275 1.7 4.2 1009.8 0.0000 0.0000
23:22 25.8 23.5 87 270 1.7 4.2 1009.8 0.0000 0.0000
23:32 25.8 23.5 87 241 1.7 3.6 1009.6 0.0000 0.0000
23:42 25.8 23.5 87 245 1.7 4.2 1009.4 0.0000 0.0000
23:52 25.8 23.5 87 246 1.4 4.7 1009.7 0.0000

DAY STATISTIC

2021-06-21
TEMPERATURE
AVERAGE
27.1
HIGH
30.2
13:17
LOW
23.2
06:19
PRESSURE
AVERAGE
1010.0
HIGH
1011.2
11:11
LOW
1008.6
04:38
DEWPOINT
AVERAGE
21.6
HIGH
24.6
12:47
LOW
15.8
05:39
HUMIDITY
AVERAGE
73
HIGH
88
22:31
LOW
55
09:00
WIND SPEED
AVERAGE
3.6
HIGH
5.6
08:30
WIND GUST
AVERAGE
5.4
HIGH
9.2
09:10
WIND DIRECTION
PREVAILING
NW
51.1%
N
7.8
NE
0.0
E
0.0
SE
0.0
S
0.0
SW
36.2
W
5.0
NW
51.1
PRECIPITATION
RAIN HOUR
0.0
RAIN DAY
0.0
TEMPERATURE (°C)
LOW
23.2
HIGH
30.2
AVERAGE
27.1
PRESSURE (hpa)
LOW
1008.6
HIGH
1011.2
AVERAGE
1010.0
DEVICE